createdAt,value
2018-11-27T00:01:04.551Z,101069.48
2018-11-27T00:03:38.607Z,101072.59
2018-11-27T00:06:07.619Z,101072.99
2018-11-27T00:08:36.715Z,101071.28
2018-11-27T00:11:05.647Z,101078.19
2018-11-27T00:13:34.590Z,101075.61
2018-11-27T00:16:03.395Z,101080.84
2018-11-27T00:18:32.868Z,101080.38
2018-11-27T00:21:01.702Z,101084.23
2018-11-27T00:23:30.764Z,101076.45
2018-11-27T00:25:59.573Z,101077.73
2018-11-27T00:28:28.446Z,101082.55
2018-11-27T00:30:57.232Z,101080.84
2018-11-27T00:33:26.178Z,101077.76
2018-11-27T00:35:55.736Z,101072.03
2018-11-27T00:38:24.567Z,101075.92
2018-11-27T00:40:53.721Z,101081.94
2018-11-27T00:43:22.612Z,101078.63
2018-11-27T00:45:51.356Z,101081.30
2018-11-27T00:48:20.170Z,101084.81
2018-11-27T00:50:49.084Z,101084.81
2018-11-27T00:53:18.016Z,101083.54
2018-11-27T00:55:47.069Z,101089.14
2018-11-27T00:58:15.832Z,101087.08
2018-11-27T01:00:45.366Z,101082.75
2018-11-27T01:03:14.085Z,101093.64
2018-11-27T01:05:42.911Z,101084.03
2018-11-27T01:08:11.627Z,101094.48
2018-11-27T01:10:41.824Z,101096.64
2018-11-27T01:13:11.417Z,101095.36
2018-11-27T01:15:40.417Z,101097.09
2018-11-27T01:18:09.211Z,101103.14
2018-11-27T01:20:38.548Z,101104.86
2018-11-27T01:23:08.181Z,101106.08
2018-11-27T01:25:38.146Z,101109.16
2018-11-27T01:28:07.327Z,101111.75
2018-11-27T01:30:36.636Z,101115.72
2018-11-27T01:33:05.926Z,101116.19
2018-11-27T01:35:34.975Z,101116.59
2018-11-27T01:38:04.884Z,101118.34
2018-11-27T01:40:33.604Z,101110.03
2018-11-27T01:43:03.187Z,101111.39
2018-11-27T01:45:31.938Z,101111.86
2018-11-27T01:48:01.627Z,101119.70
2018-11-27T01:50:31.130Z,101123.66
2018-11-27T01:53:00.412Z,101117.12
2018-11-27T01:55:29.074Z,101121.01
2018-11-27T01:57:58.021Z,101119.30
2018-11-27T02:00:28.088Z,101122.84
2018-11-27T02:02:57.348Z,101120.25
2018-11-27T02:05:27.248Z,101119.38
2018-11-27T02:07:56.247Z,101115.89
2018-11-27T02:10:27.385Z,101119.38
2018-11-27T02:13:01.229Z,101117.64
2018-11-27T02:15:29.233Z,101114.99
2018-11-27T02:17:58.955Z,101110.64
2018-11-27T02:20:28.772Z,101102.81
2018-11-27T02:22:57.796Z,101111.13
2018-11-27T02:25:27.900Z,101110.66
2018-11-27T02:28:13.330Z,101115.10
2018-11-27T02:30:43.613Z,101115.52
2018-11-27T02:33:15.482Z,101112.05
2018-11-27T02:35:45.310Z,101119.08
2018-11-27T02:38:14.140Z,101119.54
2018-11-27T02:40:43.323Z,101114.72
2018-11-27T02:43:13.132Z,101115.67
2018-11-27T02:45:42.925Z,101116.13
2018-11-27T02:48:19.658Z,101110.58
2018-11-27T02:50:48.764Z,101112.38
2018-11-27T02:53:18.461Z,101121.98
2018-11-27T02:55:47.290Z,101121.16
2018-11-27T02:58:15.939Z,101120.72
2018-11-27T03:00:45.468Z,101122.05
2018-11-27T03:03:14.219Z,101122.52
2018-11-27T03:05:43.010Z,101126.88
2018-11-27T03:08:11.765Z,101127.77
2018-11-27T03:10:40.919Z,101130.87
2018-11-27T03:13:09.636Z,101133.91
2018-11-27T03:15:38.371Z,101140.90
2018-11-27T03:18:07.686Z,101137.86
2018-11-27T03:20:36.807Z,101141.37
2018-11-27T03:23:11.877Z,101146.15
2018-11-27T03:25:40.894Z,101141.39
2018-11-27T03:28:09.713Z,101138.80
2018-11-27T03:30:38.656Z,101138.39
2018-11-27T03:33:07.471Z,101140.16
2018-11-27T03:35:36.671Z,101141.47
2018-11-27T03:38:05.434Z,101141.87
2018-11-27T03:40:34.265Z,101149.71
2018-11-27T03:43:02.977Z,101157.55
2018-11-27T03:45:32.428Z,101158.87
2018-11-27T03:48:01.264Z,101168.89
2018-11-27T03:50:31.449Z,101174.50
2018-11-27T03:53:00.334Z,101171.81
2018-11-27T03:55:29.736Z,101168.28
2018-11-27T03:57:58.719Z,101173.46
2018-11-27T04:00:28.944Z,101176.90
2018-11-27T04:03:04.385Z,101171.65
2018-11-27T04:05:33.305Z,101176.42
2018-11-27T04:08:02.122Z,101178.11
2018-11-27T04:10:30.921Z,101181.98
2018-11-27T04:12:59.716Z,101178.03
2018-11-27T04:15:28.432Z,101177.55
2018-11-27T04:17:57.450Z,101178.91
2018-11-27T04:20:26.335Z,101173.27
2018-11-27T04:22:55.063Z,101185.48
2018-11-27T04:25:23.842Z,101189.00
2018-11-27T04:27:53.659Z,101182.92
2018-11-27T04:30:23.471Z,101184.72
2018-11-27T04:32:52.480Z,101178.23
2018-11-27T04:35:22.183Z,101182.20
2018-11-27T04:37:52.093Z,101179.59
2018-11-27T04:40:22.027Z,101177.41
2018-11-27T04:42:50.889Z,101178.34
2018-11-27T04:45:22.110Z,101183.98
2018-11-27T04:47:51.041Z,101195.77
2018-11-27T04:50:36.568Z,101192.31
2018-11-27T04:53:06.660Z,101198.38
2018-11-27T04:55:35.562Z,101202.77
2018-11-27T04:58:04.297Z,101205.83
2018-11-27T05:00:33.369Z,101208.39
2018-11-27T05:03:02.435Z,101211.41
2018-11-27T05:05:31.438Z,101210.11
2018-11-27T05:08:00.501Z,101211.41
2018-11-27T05:10:29.264Z,101214.08
2018-11-27T05:12:58.161Z,101211.95
2018-11-27T05:15:27.604Z,101214.59
2018-11-27T05:17:58.344Z,101218.11
2018-11-27T05:20:27.371Z,101212.01
2018-11-27T05:22:57.654Z,101217.65
2018-11-27T05:25:26.714Z,101218.91
2018-11-27T05:27:58.301Z,101213.23
2018-11-27T05:30:29.757Z,101213.66
2018-11-27T05:32:59.470Z,101214.92
2018-11-27T05:35:31.287Z,101219.30
2018-11-27T05:38:02.513Z,101215.42
2018-11-27T05:40:31.707Z,101216.30
2018-11-27T05:43:04.960Z,101224.07
2018-11-27T05:45:33.752Z,101232.27
2018-11-27T05:48:02.542Z,101230.03
2018-11-27T05:50:31.533Z,101235.19
2018-11-27T05:53:00.700Z,101232.96
2018-11-27T05:55:29.890Z,101234.20
2018-11-27T05:57:58.928Z,101229.77
2018-11-27T06:00:29.569Z,101232.36
2018-11-27T06:03:00.391Z,101237.52
2018-11-27T06:05:29.381Z,101244.91
2018-11-27T06:07:59.302Z,101244.45
2018-11-27T06:10:28.176Z,101240.94
2018-11-27T06:12:57.416Z,101250.45
2018-11-27T06:15:27.945Z,101252.17
2018-11-27T06:18:00.124Z,101255.66
2018-11-27T06:20:31.054Z,101257.47
2018-11-27T06:23:00.223Z,101268.81
2018-11-27T06:25:30.644Z,101275.36
2018-11-27T06:28:01.580Z,101281.83
2018-11-27T06:30:31.358Z,101287.84
2018-11-27T06:33:00.642Z,101283.06
2018-11-27T06:35:31.960Z,101286.08
2018-11-27T06:38:01.126Z,101290.87
2018-11-27T06:40:31.067Z,101291.67
2018-11-27T06:43:01.140Z,101292.98
2018-11-27T06:45:30.478Z,101296.45
2018-11-27T06:48:00.339Z,101301.67
2018-11-27T06:50:29.799Z,101299.03
2018-11-27T06:52:59.762Z,101301.63
2018-11-27T06:55:28.773Z,101305.05
2018-11-27T06:57:58.720Z,101311.97
2018-11-27T07:00:28.750Z,101309.72
2018-11-27T07:02:58.417Z,101311.03
2018-11-27T07:05:27.594Z,101325.36
2018-11-27T07:07:58.316Z,101321.03
2018-11-27T07:10:31.391Z,101336.22
2018-11-27T07:13:07.936Z,101338.41
2018-11-27T07:15:36.670Z,101346.66
2018-11-27T07:18:07.360Z,101345.37
2018-11-27T07:20:36.582Z,101354.08
2018-11-27T07:23:06.607Z,101358.41
2018-11-27T07:25:39.850Z,101366.23
2018-11-27T07:28:08.923Z,101367.95
2018-11-27T07:30:40.753Z,101367.52
2018-11-27T07:33:12.688Z,101367.95
2018-11-27T07:35:41.675Z,101371.88
2018-11-27T07:38:10.438Z,101368.44
2018-11-27T07:40:39.170Z,101364.12
2018-11-27T07:43:10.434Z,101368.46
2018-11-27T07:45:39.792Z,101376.78
2018-11-27T07:48:09.444Z,101371.23
2018-11-27T07:50:38.143Z,101369.12
2018-11-27T07:53:07.442Z,101367.36
2018-11-27T07:55:36.398Z,101369.48
2018-11-27T07:58:06.827Z,101373.83
2018-11-27T08:00:36.351Z,101384.67
2018-11-27T08:03:07.151Z,101383.81
2018-11-27T08:05:37.663Z,101385.55
2018-11-27T08:08:07.515Z,101382.56
2018-11-27T08:10:36.244Z,101388.64
2018-11-27T08:13:04.947Z,101389.02
2018-11-27T08:15:33.894Z,101395.10
2018-11-27T08:18:02.622Z,101392.39
2018-11-27T08:20:32.607Z,101396.78
2018-11-27T08:23:02.292Z,101396.73
2018-11-27T08:25:30.989Z,101399.78
2018-11-27T08:27:59.820Z,101403.23
2018-11-27T08:30:28.593Z,101406.67
2018-11-27T08:32:58.680Z,101403.09
2018-11-27T08:35:29.290Z,101407.38
2018-11-27T08:38:35.650Z,101399.89
2018-11-27T08:41:06.443Z,101402.07
2018-11-27T08:43:35.375Z,101405.02
2018-11-27T08:46:04.306Z,101409.72
2018-11-27T08:48:33.281Z,101412.75
2018-11-27T08:51:02.093Z,101415.37
2018-11-27T08:53:30.938Z,101410.52
2018-11-27T08:56:00.177Z,101416.16
2018-11-27T08:58:28.885Z,101416.16
2018-11-27T09:00:57.733Z,101415.70
2018-11-27T09:03:26.520Z,101414.73
2018-11-27T09:05:55.416Z,101413.80
2018-11-27T09:08:24.201Z,101419.02
2018-11-27T09:10:52.846Z,101421.64
2018-11-27T09:13:21.566Z,101421.61
2018-11-27T09:15:50.649Z,101426.82
2018-11-27T09:18:21.891Z,101431.56
2018-11-27T09:20:51.281Z,101433.62
2018-11-27T09:23:20.086Z,101437.85
2018-11-27T09:25:49.694Z,101434.79
2018-11-27T09:28:20.219Z,101440.91
2018-11-27T09:30:50.660Z,101449.09
2018-11-27T09:33:21.085Z,101445.08
2018-11-27T09:35:50.287Z,101449.45
2018-11-27T09:38:19.094Z,101449.39
2018-11-27T09:40:47.775Z,101446.66
2018-11-27T09:43:16.717Z,101444.83
2018-11-27T09:45:46.237Z,101447.48
2018-11-27T09:48:14.896Z,101440.95
2018-11-27T09:50:44.605Z,101437.88
2018-11-27T09:53:15.149Z,101436.06
2018-11-27T09:55:44.743Z,101428.15
2018-11-27T09:58:13.567Z,101434.11
2018-11-27T10:00:42.356Z,101442.23
2018-11-27T10:03:12.984Z,101430.00
2018-11-27T10:05:41.857Z,101428.58
2018-11-27T10:08:12.059Z,101424.64
2018-11-27T10:10:40.852Z,101420.30
2018-11-27T10:13:09.757Z,101416.46
2018-11-27T10:15:39.363Z,101407.78
2018-11-27T10:18:08.276Z,101407.25
2018-11-27T10:20:39.404Z,101415.55
2018-11-27T10:23:10.804Z,101419.80
2018-11-27T10:25:40.004Z,101419.86
2018-11-27T10:28:08.992Z,101421.89
2018-11-27T10:30:38.052Z,101420.02
2018-11-27T10:33:09.586Z,101424.33
2018-11-27T10:35:52.457Z,101421.61
2018-11-27T10:38:21.298Z,101419.70
2018-11-27T10:40:51.397Z,101419.56
2018-11-27T10:43:21.388Z,101423.97
2018-11-27T10:45:51.474Z,101424.44
2018-11-27T10:48:20.299Z,101432.22
2018-11-27T10:50:49.996Z,101425.66
2018-11-27T10:53:18.744Z,101435.30
2018-11-27T10:55:47.589Z,101435.34
2018-11-27T10:58:17.019Z,101441.77
2018-11-27T11:00:51.022Z,101440.92
2018-11-27T11:03:49.888Z,101445.20
2018-11-27T11:06:18.710Z,101442.47
2018-11-27T11:08:48.030Z,101440.19
2018-11-27T11:11:16.884Z,101445.63
2018-11-27T11:13:45.841Z,101449.03
2018-11-27T11:16:15.128Z,101450.64
2018-11-27T11:18:44.581Z,101452.39
2018-11-27T11:21:13.503Z,101451.95
2018-11-27T11:23:43.591Z,101457.50
2018-11-27T11:26:12.704Z,101448.21
2018-11-27T11:28:43.021Z,101445.92
2018-11-27T11:31:11.695Z,101456.81
2018-11-27T11:33:40.592Z,101452.70
2018-11-27T11:36:10.192Z,101446.54
2018-11-27T11:38:39.089Z,101439.86
2018-11-27T11:41:07.968Z,101445.88
2018-11-27T11:43:36.950Z,101441.34
2018-11-27T11:46:06.212Z,101449.15
2018-11-27T11:48:34.976Z,101447.36
2018-11-27T11:51:04.274Z,101450.72
2018-11-27T11:53:33.159Z,101455.61
2018-11-27T11:56:02.040Z,101453.64
2018-11-27T11:58:30.880Z,101453.79
2018-11-27T12:00:59.937Z,101455.94
2018-11-27T12:03:28.824Z,101455.62
2018-11-27T12:05:58.649Z,101465.47
2018-11-27T12:08:28.456Z,101468.56
2018-11-27T12:10:58.643Z,101469.91
2018-11-27T12:13:27.381Z,101472.84
2018-11-27T12:15:56.418Z,101462.84
2018-11-27T12:18:25.166Z,101462.84
2018-11-27T12:20:53.909Z,101465.06
2018-11-27T12:23:22.601Z,101473.81
2018-11-27T12:25:51.392Z,101478.59
2018-11-27T12:28:20.156Z,101477.86
2018-11-27T12:30:49.064Z,101476.95
2018-11-27T12:33:17.861Z,101475.86
2018-11-27T12:35:46.715Z,101485.02
2018-11-27T12:38:17.104Z,101487.27
2018-11-27T12:40:46.087Z,101490.41
2018-11-27T12:43:15.700Z,101485.63
2018-11-27T12:45:44.584Z,101490.38
2018-11-27T12:48:13.349Z,101489.87
2018-11-27T12:50:43.774Z,101497.64
2018-11-27T12:53:16.986Z,101492.42
2018-11-27T12:55:44.846Z,101492.49
2018-11-27T12:58:13.711Z,101492.09
2018-11-27T13:00:42.457Z,101488.98
2018-11-27T13:03:11.273Z,101484.69
2018-11-27T13:05:43.159Z,101490.08
2018-11-27T13:08:17.539Z,101484.67
2018-11-27T13:10:46.450Z,101485.23
2018-11-27T13:13:16.332Z,101495.13
2018-11-27T13:15:45.779Z,101500.44
2018-11-27T13:18:14.944Z,101492.53
2018-11-27T13:20:43.764Z,101486.48
2018-11-27T13:23:12.478Z,101475.55
2018-11-27T13:25:42.317Z,101477.91
2018-11-27T13:28:12.697Z,101470.57
2018-11-27T13:30:48.698Z,101472.66
2018-11-27T13:33:20.621Z,101466.09
2018-11-27T13:35:49.456Z,101465.25
2018-11-27T13:38:18.154Z,101465.69
2018-11-27T13:40:46.851Z,101475.75
2018-11-27T13:43:22.746Z,101469.62
2018-11-27T13:45:51.580Z,101473.36
2018-11-27T13:48:20.332Z,101474.16
2018-11-27T13:50:49.052Z,101470.80
2018-11-27T13:53:17.873Z,101473.53
2018-11-27T13:55:47.687Z,101480.16
2018-11-27T13:58:17.184Z,101489.51
2018-11-27T14:00:46.258Z,101489.23
2018-11-27T14:03:14.960Z,101490.81
2018-11-27T14:05:43.735Z,101493.34
2018-11-27T14:08:12.804Z,101495.37
2018-11-27T14:10:41.815Z,101497.59
2018-11-27T14:13:10.887Z,101493.38
2018-11-27T14:15:40.238Z,101493.21
2018-11-27T14:18:09.377Z,101499.56
2018-11-27T14:20:38.598Z,101502.76
2018-11-27T14:23:09.166Z,101502.32
2018-11-27T14:25:38.207Z,101507.66
2018-11-27T14:28:07.096Z,101512.91
2018-11-27T14:30:35.931Z,101509.06
2018-11-27T14:33:05.980Z,101512.53
2018-11-27T14:35:34.849Z,101512.28
2018-11-27T14:38:03.847Z,101517.59
2018-11-27T14:40:32.575Z,101521.03
2018-11-27T14:43:01.563Z,101521.75
2018-11-27T14:45:30.427Z,101528.25
2018-11-27T14:47:59.750Z,101529.68
2018-11-27T14:50:28.709Z,101531.95
2018-11-27T14:52:57.892Z,101531.43
2018-11-27T14:55:30.317Z,101532.37
2018-11-27T14:57:59.803Z,101529.02
2018-11-27T15:00:30.370Z,101530.86
2018-11-27T15:02:59.423Z,101531.41
2018-11-27T15:05:38.486Z,101532.72
2018-11-27T15:08:14.295Z,101531.47
2018-11-27T15:10:43.070Z,101528.84
2018-11-27T15:13:12.820Z,101537.59
2018-11-27T15:15:42.090Z,101537.18
2018-11-27T15:18:10.776Z,101534.18
2018-11-27T15:20:39.785Z,101532.48
2018-11-27T15:23:08.429Z,101532.92
2018-11-27T15:25:37.155Z,101529.89
2018-11-27T15:28:07.291Z,101533.91
2018-11-27T15:30:38.393Z,101540.16
2018-11-27T15:33:07.899Z,101541.14
2018-11-27T15:35:38.128Z,101536.86
2018-11-27T15:38:07.679Z,101537.27
2018-11-27T15:40:37.057Z,101532.97
2018-11-27T15:43:06.931Z,101528.69
2018-11-27T15:45:36.335Z,101532.70
2018-11-27T15:48:07.319Z,101517.93
2018-11-27T15:50:36.313Z,101520.59
2018-11-27T15:53:06.085Z,101514.56
2018-11-27T15:55:37.448Z,101514.69
2018-11-27T15:58:13.590Z,101511.70
2018-11-27T16:00:43.508Z,101515.81
2018-11-27T16:03:12.618Z,101515.95
2018-11-27T16:05:45.300Z,101519.95
2018-11-27T16:08:14.598Z,101520.44
2018-11-27T16:10:43.306Z,101510.48
2018-11-27T16:13:12.343Z,101513.17
2018-11-27T16:15:41.168Z,101509.75
2018-11-27T16:18:10.140Z,101512.81
2018-11-27T16:20:39.114Z,101517.30
2018-11-27T16:23:08.624Z,101527.81
2018-11-27T16:25:37.594Z,101538.31
2018-11-27T16:28:06.545Z,101538.86
2018-11-27T16:30:35.304Z,101544.60
2018-11-27T16:33:04.260Z,101539.37
2018-11-27T16:35:32.988Z,101539.43
2018-11-27T16:38:01.963Z,101538.97
2018-11-27T16:40:32.404Z,101543.81
2018-11-27T16:43:01.144Z,101545.61
2018-11-27T16:45:30.083Z,101546.97
2018-11-27T16:47:59.061Z,101553.58
2018-11-27T16:50:28.724Z,101554.95
2018-11-27T16:52:57.730Z,101549.75
2018-11-27T16:55:26.674Z,101546.67
2018-11-27T16:57:55.398Z,101549.25
2018-11-27T17:00:27.014Z,101546.63
2018-11-27T17:02:59.444Z,101534.40
2018-11-27T17:05:29.660Z,101541.33
2018-11-27T17:07:58.515Z,101541.33
2018-11-27T17:10:33.513Z,101535.20
2018-11-27T17:13:02.920Z,101534.75
2018-11-27T17:15:31.680Z,101531.30
2018-11-27T17:18:00.399Z,101530.94
2018-11-27T17:20:30.429Z,101533.14
2018-11-27T17:23:02.211Z,101538.83
2018-11-27T17:25:31.007Z,101543.23
2018-11-27T17:28:07.204Z,101548.03
2018-11-27T17:31:09.713Z,101544.64
2018-11-27T17:33:44.637Z,101553.36
2018-11-27T17:36:13.892Z,101555.55
2018-11-27T17:38:42.628Z,101561.16
2018-11-27T17:41:11.633Z,101557.20
2018-11-27T17:43:41.026Z,101559.74
2018-11-27T17:46:09.868Z,101560.12
2018-11-27T17:48:38.752Z,101556.61
2018-11-27T17:51:08.546Z,101554.87
2018-11-27T17:53:37.252Z,101549.58
2018-11-27T17:56:06.275Z,101547.83
2018-11-27T17:58:35.186Z,101551.30
2018-11-27T18:01:05.083Z,101540.39
2018-11-27T18:03:36.715Z,101546.46
2018-11-27T18:06:05.600Z,101553.44
2018-11-27T18:08:34.412Z,101555.19
2018-11-27T18:11:03.135Z,101555.20
2018-11-27T18:13:32.118Z,101554.83
2018-11-27T18:16:00.743Z,101557.95
2018-11-27T18:18:29.425Z,101552.83
2018-11-27T18:20:58.166Z,101546.79
2018-11-27T18:23:26.818Z,101546.84
2018-11-27T18:25:55.788Z,101546.03
2018-11-27T18:28:24.502Z,101541.75
2018-11-27T18:30:53.287Z,101547.42
2018-11-27T18:33:22.082Z,101542.67
2018-11-27T18:35:50.733Z,101552.55
2018-11-27T18:38:19.563Z,101539.53
2018-11-27T18:40:48.318Z,101544.87
2018-11-27T18:43:17.058Z,101542.73
2018-11-27T18:45:45.853Z,101543.20
2018-11-27T18:48:19.177Z,101537.61
2018-11-27T18:50:50.681Z,101535.91
2018-11-27T18:53:19.731Z,101533.31
2018-11-27T18:55:51.221Z,101531.59
2018-11-27T18:58:21.325Z,101532.89
2018-11-27T19:00:58.146Z,101546.44
2018-11-27T19:03:32.797Z,101539.55
2018-11-27T19:06:03.619Z,101531.73
2018-11-27T19:08:32.746Z,101536.96
2018-11-27T19:11:01.569Z,101537.38
2018-11-27T19:13:30.376Z,101551.34
2018-11-27T19:15:59.169Z,101546.16
2018-11-27T19:18:28.317Z,101549.63
2018-11-27T19:20:57.171Z,101550.09
2018-11-27T19:23:26.822Z,101551.84
2018-11-27T19:25:55.663Z,101550.56
2018-11-27T19:28:24.811Z,101552.30
2018-11-27T19:30:53.607Z,101556.63
2018-11-27T19:33:22.613Z,101550.14
2018-11-27T19:35:51.676Z,101547.11
2018-11-27T19:38:21.033Z,101547.55
2018-11-27T19:40:49.912Z,101554.05
2018-11-27T19:43:19.213Z,101558.86
2018-11-27T19:45:48.125Z,101563.66
2018-11-27T19:48:17.411Z,101564.55
2018-11-27T19:50:46.107Z,101567.61
2018-11-27T19:53:15.875Z,101555.86
2018-11-27T19:55:44.987Z,101558.43
2018-11-27T19:58:14.187Z,101561.09
2018-11-27T20:00:43.022Z,101560.62
2018-11-27T20:03:12.668Z,101564.15
2018-11-27T20:05:41.733Z,101559.36
2018-11-27T20:08:14.227Z,101558.52
2018-11-27T20:10:43.044Z,101555.49
2018-11-27T20:13:11.971Z,101557.64
2018-11-27T20:15:41.034Z,101568.12
2018-11-27T20:18:10.104Z,101568.55
2018-11-27T20:20:38.871Z,101572.92
2018-11-27T20:23:08.269Z,101563.39
2018-11-27T20:25:37.133Z,101567.31
2018-11-27T20:28:07.270Z,101563.83
2018-11-27T20:30:36.960Z,101561.22
2018-11-27T20:33:06.566Z,101556.88
2018-11-27T20:35:35.682Z,101552.52
2018-11-27T20:38:07.752Z,101548.61
2018-11-27T20:40:36.726Z,101553.44
2018-11-27T20:43:05.796Z,101555.61
2018-11-27T20:45:35.224Z,101559.95
2018-11-27T20:48:20.015Z,101563.88
2018-11-27T20:50:50.581Z,101552.60
2018-11-27T20:53:19.937Z,101561.33
2018-11-27T20:55:49.617Z,101562.64
2018-11-27T20:58:18.573Z,101564.39
2018-11-27T21:00:49.056Z,101563.95
2018-11-27T21:03:18.670Z,101565.73
2018-11-27T21:05:48.485Z,101562.69
2018-11-27T21:08:17.609Z,101563.12
2018-11-27T21:10:46.990Z,101567.06
2018-11-27T21:13:15.771Z,101571.42
2018-11-27T21:15:44.915Z,101572.27
2018-11-27T21:18:15.040Z,101574.89
2018-11-27T21:20:44.399Z,101582.31
2018-11-27T21:23:13.500Z,101584.52
2018-11-27T21:25:42.486Z,101584.94
2018-11-27T21:28:15.927Z,101579.31
2018-11-27T21:30:46.086Z,101577.98
2018-11-27T21:33:14.941Z,101571.06
2018-11-27T21:35:43.838Z,101574.09
2018-11-27T21:38:12.891Z,101574.54
2018-11-27T21:40:41.937Z,101577.56
2018-11-27T21:43:11.000Z,101570.17
2018-11-27T21:45:41.004Z,101572.36
2018-11-27T21:48:09.826Z,101568.03
2018-11-27T21:50:41.685Z,101576.72
2018-11-27T21:53:10.380Z,101567.60
2018-11-27T21:55:40.203Z,101569.33
2018-11-27T21:58:08.936Z,101571.51
2018-11-27T22:00:39.173Z,101569.79
2018-11-27T22:03:08.478Z,101574.12
2018-11-27T22:05:37.291Z,101574.14
2018-11-27T22:08:08.423Z,101571.10
2018-11-27T22:10:37.641Z,101574.12
2018-11-27T22:13:13.352Z,101574.15
2018-11-27T22:15:43.356Z,101582.84
2018-11-27T22:18:12.857Z,101582.83
2018-11-27T22:20:41.737Z,101569.80
2018-11-27T22:23:10.677Z,101572.42
2018-11-27T22:25:39.665Z,101576.75
2018-11-27T22:28:09.808Z,101571.55
2018-11-27T22:30:38.830Z,101571.97
2018-11-27T22:33:09.476Z,101567.22
2018-11-27T22:35:38.693Z,101570.25
2018-11-27T22:38:08.324Z,101571.97
2018-11-27T22:40:37.753Z,101573.28
2018-11-27T22:43:07.524Z,101567.64
2018-11-27T22:45:38.615Z,101568.08
2018-11-27T22:48:08.750Z,101568.52
2018-11-27T22:50:37.574Z,101572.86
2018-11-27T22:53:07.176Z,101576.73
2018-11-27T22:55:35.866Z,101574.58
2018-11-27T22:58:05.377Z,101569.81
2018-11-27T23:00:39.679Z,101573.72
2018-11-27T23:03:08.375Z,101571.11
2018-11-27T23:05:37.166Z,101565.03
2018-11-27T23:08:05.986Z,101568.08
2018-11-27T23:10:36.253Z,101560.69
2018-11-27T23:13:05.202Z,101557.66
2018-11-27T23:15:34.031Z,101562.01
2018-11-27T23:18:02.675Z,101563.32
2018-11-27T23:20:31.503Z,101566.35
2018-11-27T23:23:00.293Z,101559.41
2018-11-27T23:25:29.113Z,101566.36
2018-11-27T23:27:57.893Z,101561.98
2018-11-27T23:30:27.070Z,101558.09
2018-11-27T23:32:55.879Z,101568.06
2018-11-27T23:35:24.722Z,101565.05
2018-11-27T23:37:53.538Z,101564.17
2018-11-27T23:40:22.797Z,101554.17
2018-11-27T23:42:51.700Z,101548.55
2018-11-27T23:45:22.361Z,101542.45
2018-11-27T23:47:51.199Z,101544.22
2018-11-27T23:50:20.991Z,101542.05
2018-11-27T23:52:50.771Z,101538.56
2018-11-27T23:55:20.436Z,101536.41
2018-11-27T23:57:49.394Z,101538.56
